createdAt,value
2022-12-25T00:01:15.125Z,4.38
2022-12-25T00:11:23.445Z,3.85
2022-12-25T00:21:25.709Z,3.21
2022-12-25T00:31:28.087Z,2.65
2022-12-25T00:41:48.677Z,2.15
2022-12-25T00:51:51.455Z,1.82
2022-12-25T01:01:53.817Z,1.53
2022-12-25T01:11:56.168Z,1.31
2022-12-25T01:21:58.330Z,1.26
2022-12-25T01:32:00.604Z,1.34
2022-12-25T01:42:03.030Z,1.43
2022-12-25T01:52:12.010Z,1.44
2022-12-25T02:02:14.985Z,1.33
2022-12-25T02:12:30.235Z,1.16
2022-12-25T02:22:51.482Z,0.95
2022-12-25T02:33:19.281Z,0.84
2022-12-25T02:43:46.023Z,0.54
2022-12-25T02:54:10.252Z,0.38
2022-12-25T03:04:35.553Z,0.44
2022-12-25T03:14:57.751Z,0.40
2022-12-25T03:25:19.383Z,0.28
2022-12-25T03:35:46.018Z,0.26
2022-12-25T03:46:05.400Z,0.10
2022-12-25T03:56:26.963Z,0.03
2022-12-25T04:06:47.569Z,-0.07
2022-12-25T04:17:08.537Z,-0.28
2022-12-25T04:27:29.368Z,-0.32
2022-12-25T04:37:31.567Z,-0.36
2022-12-25T04:47:33.840Z,-0.56
2022-12-25T04:57:36.790Z,-0.73
2022-12-25T05:07:38.980Z,-0.93
2022-12-25T05:17:41.142Z,-1.17
2022-12-25T05:27:46.467Z,-1.43
2022-12-25T05:37:50.920Z,-1.58
2022-12-25T05:47:53.371Z,-1.75
2022-12-25T05:57:55.543Z,-1.85
2022-12-25T06:07:57.795Z,-2.06
2022-12-25T06:18:01.674Z,-2.22
2022-12-25T06:28:04.064Z,-2.33
2022-12-25T06:38:06.270Z,-2.41
2022-12-25T06:48:08.469Z,-2.44
2022-12-25T06:58:10.699Z,-2.50
2022-12-25T07:08:13.386Z,-2.60
2022-12-25T07:18:15.558Z,-2.59
2022-12-25T07:28:17.744Z,-2.54
2022-12-25T07:38:20.055Z,-2.57
2022-12-25T07:48:22.282Z,-2.42
2022-12-25T07:58:24.633Z,-2.46
2022-12-25T08:08:26.805Z,-2.36
2022-12-25T08:18:32.533Z,-2.15
2022-12-25T08:28:35.780Z,-1.83
2022-12-25T08:38:39.057Z,-1.74
2022-12-25T08:48:45.958Z,-1.46
2022-12-25T08:58:48.229Z,-1.19
2022-12-25T09:08:50.609Z,-0.70
2022-12-25T10:35:47.674Z,-1.32
2022-12-25T10:45:50.048Z,-0.60
2022-12-25T10:56:03.333Z,-0.18
2022-12-25T11:06:07.767Z,0.50
2022-12-25T11:16:14.480Z,0.92
2022-12-25T11:26:18.469Z,1.07
2022-12-25T11:36:42.248Z,0.81
2022-12-25T11:46:47.970Z,0.52
2022-12-25T11:56:50.501Z,0.38
2022-12-25T12:07:00.658Z,0.24
2022-12-25T12:17:03.031Z,0.24
2022-12-25T12:27:18.341Z,0.42
2022-12-25T12:37:29.334Z,0.70
2022-12-25T12:47:44.874Z,1.41
2022-12-25T12:58:01.697Z,1.91
2022-12-25T13:08:12.759Z,2.31
2022-12-25T13:18:15.247Z,2.67
2022-12-25T13:28:17.398Z,2.82
2022-12-25T13:38:19.916Z,2.73
2022-12-25T13:48:23.366Z,3.01
2022-12-25T13:58:31.501Z,3.07
2022-12-25T14:08:35.974Z,3.34
2022-12-25T14:18:38.163Z,3.21
2022-12-25T14:28:40.411Z,3.21
2022-12-25T14:38:44.271Z,3.05
2022-12-25T14:48:46.533Z,3.02
2022-12-25T14:58:52.723Z,3.35
2022-12-25T15:09:03.062Z,3.14
2022-12-25T15:19:07.609Z,3.00
2022-12-25T15:29:10.752Z,3.08
2022-12-25T15:39:13.144Z,3.23
2022-12-25T15:49:16.414Z,3.30
2022-12-25T15:59:19.916Z,3.26
2022-12-25T16:09:22.212Z,3.22
2022-12-25T16:19:24.447Z,3.39
2022-12-25T16:29:26.757Z,3.61
2022-12-25T16:39:29.135Z,3.79
2022-12-25T16:49:31.618Z,4.13
2022-12-25T16:59:34.755Z,5.23
2022-12-25T17:09:43.721Z,5.48
2022-12-25T17:19:46.581Z,5.52
2022-12-25T17:29:48.779Z,5.97
2022-12-25T17:39:50.969Z,6.54
2022-12-25T17:49:53.160Z,6.79
2022-12-25T17:59:55.408Z,6.94
2022-12-25T18:09:57.641Z,7.34
2022-12-25T18:19:59.820Z,7.52
2022-12-25T18:30:02.354Z,7.47
2022-12-25T18:40:05.451Z,7.59
2022-12-25T18:50:08.818Z,7.68
2022-12-25T19:00:11.285Z,7.43
2022-12-25T19:10:13.543Z,6.92
2022-12-25T19:20:15.794Z,7.10
2022-12-25T19:30:18.431Z,7.49
2022-12-25T19:40:20.724Z,7.71
2022-12-25T19:50:28.429Z,7.49
2022-12-25T20:00:31.171Z,7.42
2022-12-25T20:10:33.383Z,7.40
2022-12-25T20:20:35.770Z,7.12
2022-12-25T20:30:39.649Z,7.28
2022-12-25T20:41:24.625Z,7.65
2022-12-25T20:51:08.803Z,7.72
2022-12-25T21:01:15.518Z,7.77
2022-12-25T21:11:18.292Z,7.84
2022-12-25T21:21:22.066Z,8.01
2022-12-25T21:40:16.196Z,8.32
2022-12-25T21:50:39.469Z,8.10
2022-12-25T22:00:41.840Z,7.75
2022-12-25T22:10:44.104Z,7.74
2022-12-25T22:20:46.306Z,7.90
2022-12-25T22:30:48.504Z,8.16
2022-12-25T22:40:50.889Z,8.21
2022-12-25T22:50:53.104Z,8.48
2022-12-25T23:00:55.292Z,8.46
2022-12-25T23:11:05.302Z,8.35
2022-12-25T23:21:26.096Z,8.27
2022-12-25T23:31:38.101Z,7.93
2022-12-25T23:41:42.106Z,7.48
2022-12-25T23:51:46.132Z,7.00
